This is the latest recevied weather packets stored in our database for station/object KE5YIM-13. If no packets are shown the sender has not sent any weather packets the latest 10 day(s).
| Time | Temp. | Humidity | Pressure | Rain* | Wind** | Luminosity | Snow |
|---|---|---|---|---|---|---|---|
| 1777897328 | 12.78° C | 54% | 1014.7 hPa | 0 mm | - | 280 W/m² | - |
| 1777897024 | 12.22° C | 56% | 1014.6 hPa | 0 mm | - | 264 W/m² | - |
| 1777896721 | 12.22° C | 57% | 1014.6 hPa | 0 mm | - | 250 W/m² | - |
| 1777896418 | 11.67° C | 56% | 1014.7 hPa | 0 mm | - | 233 W/m² | - |
| 1777896116 | 11.67° C | 58% | 1014.6 hPa | 0 mm | - | 219 W/m² | - |
| 1777895814 | 11.11° C | 60% | 1014.6 hPa | 0 mm | - | 203 W/m² | - |
| 1777895511 | 10.56° C | 61% | 1014.8 hPa | 0 mm | - | 189 W/m² | - |
| 1777895209 | 10.56° C | 61% | 1014.7 hPa | 0 mm | - | 153 W/m² | - |
| 1777894906 | 10° C | 63% | 1014.7 hPa | 0 mm | - | 117 W/m² | - |
| 1777894603 | 9.44° C | 64% | 1014.8 hPa | 0 mm | - | 112 W/m² | - |
| 1777894300 | 8.33° C | 66% | 1014.8 hPa | 0 mm | - | 58 W/m² | - |
| 1777893997 | 6.67° C | 78% | 1014.8 hPa | 0 mm | - | 53 W/m² | - |
| 1777893693 | 5° C | 97% | 1014.7 hPa | 0 mm | - | 52 W/m² | - |
| 1777893390 | 3.89° C | 98% | 1014.6 hPa | 0 mm | - | 48 W/m² | - |
| 1777893086 | 2.78° C | 98% | 1014.8 hPa | 0 mm | - | 46 W/m² | - |
| 1777892783 | 2.22° C | 98% | 1014.7 hPa | 0 mm | - | 45 W/m² | - |
| 1777892479 | 1.67° C | 98% | 1014.7 hPa | 0 mm | - | 43 W/m² | - |
| 1777892175 | 1.67° C | 98% | 1014.5 hPa | 0 mm | - | 41 W/m² | - |
| 1777891872 | 1.11° C | 97% | 1014.5 hPa | 0 mm | - | 38 W/m² | - |
| 1777891569 | 1.11° C | 97% | 1014.7 hPa | 0 mm | - | 35 W/m² | - |
| 1777891266 | 1.11° C | 98% | 1014.6 hPa | 0 mm | - | 31 W/m² | - |
| 1777890966 | 1.11° C | 97% | 1014.5 hPa | 0 mm | - | 29 W/m² | - |
| 1777890660 | 1.11° C | 97% | 1014.7 hPa | 0 mm | - | 27 W/m² | - |
| 1777890356 | 0.56° C | 97% | 1014.5 hPa | 0 mm | - | 26 W/m² | - |
| 1777890052 | 0.56° C | 97% | 1014.6 hPa | 0 mm | - | 22 W/m² | - |
* Rain latest hour (hover to see other rain measurements)
** Current wind speed in m/s (hover to see current wind gust speed)